createdAt,value
2018-05-13T08:59:42.901Z,140.63
2018-05-13T09:00:42.705Z,135.00
2018-05-13T09:02:46.589Z,129.38
2018-05-13T09:03:46.461Z,129.38
2018-05-13T09:05:50.351Z,135.00
2018-05-13T09:06:50.210Z,129.38
2018-05-13T09:08:54.047Z,129.38
2018-05-13T09:09:53.970Z,129.38
2018-05-13T09:10:53.900Z,129.38
2018-05-13T09:11:53.826Z,135.00
2018-05-13T09:12:53.758Z,129.38
2018-05-13T09:13:53.692Z,135.00
2018-05-13T09:14:53.614Z,129.38
2018-05-13T09:15:53.588Z,135.00
2018-05-13T09:16:53.469Z,135.00
2018-05-13T09:17:53.409Z,135.00
2018-05-13T09:18:53.327Z,135.00
2018-05-13T09:19:53.257Z,135.00
2018-05-13T09:20:53.219Z,135.00
2018-05-13T09:21:53.123Z,135.00
2018-05-13T09:22:53.044Z,135.00
2018-05-13T09:23:52.971Z,135.00
2018-05-13T09:24:52.904Z,135.00
2018-05-13T09:25:52.836Z,135.00
2018-05-13T09:26:52.759Z,135.00
2018-05-13T09:27:52.692Z,135.00
2018-05-13T09:28:52.635Z,135.00
2018-05-13T09:29:52.549Z,135.00
2018-05-13T09:30:52.477Z,135.00
2018-05-13T09:31:52.411Z,135.00
2018-05-13T09:32:52.339Z,135.00
2018-05-13T09:33:52.268Z,135.00
2018-05-13T09:34:52.195Z,135.00
2018-05-13T09:35:52.138Z,135.00
2018-05-13T09:36:52.060Z,140.63
2018-05-13T09:37:51.988Z,140.63
2018-05-13T09:38:51.926Z,140.63
2018-05-13T09:39:51.847Z,140.63
2018-05-13T09:40:51.776Z,140.63
2018-05-13T09:41:51.707Z,140.63
2018-05-13T09:42:51.634Z,140.63
2018-05-13T09:43:51.566Z,140.63
2018-05-13T09:44:51.495Z,140.63
2018-05-13T09:45:51.459Z,140.63
2018-05-13T09:46:51.361Z,140.63
2018-05-13T09:47:51.286Z,140.63
2018-05-13T09:48:51.219Z,140.63
2018-05-13T09:49:51.161Z,140.63
2018-05-13T09:50:51.079Z,146.25
2018-05-13T09:51:51.011Z,146.25
2018-05-13T09:52:50.936Z,146.25
2018-05-13T09:53:50.867Z,146.25
2018-05-13T09:54:50.804Z,146.25
2018-05-13T09:55:50.728Z,151.88
2018-05-13T09:56:50.661Z,151.88
2018-05-13T09:57:50.604Z,146.25
2018-05-13T09:58:50.517Z,146.25
2018-05-13T09:59:50.449Z,151.88
2018-05-13T10:00:50.392Z,151.88
2018-05-13T10:01:50.309Z,151.88
2018-05-13T10:02:50.238Z,151.88
2018-05-13T10:03:50.185Z,157.50
2018-05-13T10:04:50.099Z,157.50
2018-05-13T10:05:50.033Z,163.13
2018-05-13T10:06:49.959Z,163.13
2018-05-13T10:07:49.891Z,163.13
2018-05-13T10:08:49.819Z,163.13
2018-05-13T10:09:49.752Z,163.13
2018-05-13T10:10:49.681Z,163.13
2018-05-13T10:11:49.612Z,163.13
2018-05-13T10:12:49.541Z,163.13
2018-05-13T10:13:49.496Z,174.38
2018-05-13T10:14:49.406Z,168.75
2018-05-13T10:15:49.337Z,168.75
2018-05-13T10:16:49.263Z,168.75
2018-05-13T10:17:49.195Z,174.38
2018-05-13T10:18:49.127Z,174.38
2018-05-13T10:19:49.055Z,174.38
2018-05-13T10:20:48.986Z,174.38
2018-05-13T10:21:48.917Z,174.38
2018-05-13T10:22:48.846Z,180.00
2018-05-13T10:23:48.778Z,180.00
2018-05-13T10:24:48.711Z,180.00
2018-05-13T10:25:48.662Z,185.63
2018-05-13T10:26:48.570Z,185.63
2018-05-13T10:27:48.502Z,191.25
2018-05-13T10:28:48.432Z,196.88
2018-05-13T10:29:48.393Z,202.50
2018-05-13T10:30:48.425Z,202.50
2018-05-13T10:31:48.227Z,202.50
2018-05-13T10:32:48.157Z,202.50
2018-05-13T10:33:48.088Z,202.50
2018-05-13T10:34:48.017Z,202.50
2018-05-13T10:35:47.948Z,208.13
2018-05-13T10:36:47.879Z,208.13
2018-05-13T10:37:47.810Z,208.13
2018-05-13T10:38:47.741Z,208.13
2018-05-13T10:39:47.673Z,208.13
2018-05-13T10:40:47.604Z,213.75
2018-05-13T10:41:47.535Z,213.75
2018-05-13T10:42:47.469Z,213.75
2018-05-13T10:43:47.398Z,213.75
2018-05-13T10:44:47.330Z,202.50
2018-05-13T10:45:47.261Z,146.25
2018-05-13T10:46:47.194Z,219.38
2018-05-13T10:47:47.128Z,225.00
2018-05-13T10:48:47.054Z,230.63
2018-05-13T10:49:46.989Z,230.63
2018-05-13T10:50:46.929Z,230.63
2018-05-13T10:51:46.849Z,230.63
2018-05-13T10:52:46.783Z,230.63
2018-05-13T10:53:46.714Z,230.63
2018-05-13T10:54:46.651Z,241.88
2018-05-13T10:55:46.575Z,236.25
2018-05-13T10:56:46.512Z,241.88
2018-05-13T10:57:46.464Z,236.25
2018-05-13T10:58:46.370Z,241.88
2018-05-13T10:59:46.302Z,236.25
2018-05-13T11:00:46.243Z,241.88
2018-05-13T11:01:46.167Z,241.88
2018-05-13T11:02:46.099Z,241.88
2018-05-13T11:03:46.029Z,241.88
2018-05-13T11:04:46.069Z,247.50
2018-05-13T11:05:45.896Z,247.50
2018-05-13T11:06:45.842Z,253.13
2018-05-13T11:07:45.759Z,253.13
2018-05-13T11:08:45.689Z,253.13
2018-05-13T11:09:45.621Z,247.50
2018-05-13T11:10:45.550Z,253.13
2018-05-13T11:11:45.483Z,253.13
2018-05-13T11:12:45.416Z,258.75
2018-05-13T11:13:45.348Z,253.13
2018-05-13T11:14:45.281Z,258.75
2018-05-13T11:15:45.217Z,264.38
2018-05-13T11:16:45.146Z,146.25
2018-05-13T11:17:45.081Z,270.00
2018-05-13T11:18:45.008Z,275.63
2018-05-13T11:19:44.945Z,270.00
2018-05-13T11:20:44.898Z,281.25
2018-05-13T11:21:44.804Z,275.63
2018-05-13T11:22:44.737Z,275.63
2018-05-13T11:23:44.690Z,281.25
2018-05-13T11:24:44.602Z,286.88
2018-05-13T11:25:44.536Z,286.88
2018-05-13T11:26:44.486Z,275.63
2018-05-13T11:27:44.401Z,286.88
2018-05-13T11:28:44.333Z,286.88
2018-05-13T11:29:44.279Z,281.25
2018-05-13T11:30:44.201Z,281.25
2018-05-13T11:31:44.131Z,281.25
2018-05-13T11:32:44.063Z,281.25
2018-05-13T11:33:44.083Z,264.38
2018-05-13T11:34:43.925Z,292.50
2018-05-13T11:35:43.862Z,298.13
2018-05-13T11:36:43.795Z,292.50
2018-05-13T11:37:43.727Z,286.88
2018-05-13T11:38:43.655Z,286.88
2018-05-13T11:39:43.592Z,286.88
2018-05-13T11:40:43.521Z,281.25
2018-05-13T11:41:43.458Z,292.50
2018-05-13T11:42:43.387Z,298.13
2018-05-13T11:43:43.321Z,292.50
2018-05-13T11:44:43.251Z,292.50
2018-05-13T11:45:43.187Z,298.13
2018-05-13T11:46:43.164Z,292.50
2018-05-13T11:47:43.051Z,292.50
2018-05-13T11:48:42.987Z,298.13
2018-05-13T11:49:42.921Z,292.50
2018-05-13T11:50:42.853Z,309.38
2018-05-13T11:51:42.811Z,196.88
2018-05-13T11:52:42.717Z,151.88
2018-05-13T11:53:43.644Z,253.13
2018-05-13T11:54:42.584Z,247.50
2018-05-13T11:55:42.517Z,281.25
2018-05-13T11:56:42.456Z,185.63
2018-05-13T11:57:42.382Z,258.75
2018-05-13T11:58:42.352Z,258.75
2018-05-13T11:59:42.254Z,264.38
2018-05-13T12:00:42.183Z,270.00
2018-05-13T12:01:42.117Z,174.38
2018-05-13T12:02:42.049Z,236.25
2018-05-13T12:03:41.983Z,275.63
2018-05-13T12:04:41.915Z,281.25
2018-05-13T12:05:41.851Z,213.75
2018-05-13T12:06:41.784Z,286.88
2018-05-13T12:07:41.715Z,275.63
2018-05-13T12:08:41.651Z,208.13
2018-05-13T12:09:41.587Z,286.88
2018-05-13T12:10:41.517Z,286.88
2018-05-13T12:11:41.450Z,286.88
2018-05-13T12:12:41.390Z,275.63
2018-05-13T12:13:41.331Z,303.75
2018-05-13T12:14:41.253Z,168.75
2018-05-13T12:15:41.185Z,174.38
2018-05-13T12:16:41.186Z,157.50
2018-05-13T12:17:41.053Z,270.00
2018-05-13T12:18:40.984Z,303.75
2018-05-13T12:19:40.917Z,286.88
2018-05-13T12:20:40.853Z,168.75
2018-05-13T12:21:40.787Z,163.13
2018-05-13T12:22:40.745Z,157.50
2018-05-13T12:23:40.653Z,168.75
2018-05-13T12:24:40.587Z,185.63
2018-05-13T12:25:40.521Z,191.25
2018-05-13T12:26:40.455Z,163.13
2018-05-13T12:27:40.393Z,241.88
2018-05-13T12:28:40.322Z,320.63
2018-05-13T12:29:40.259Z,315.00
2018-05-13T12:30:40.201Z,309.38
2018-05-13T12:31:40.123Z,331.88
2018-05-13T12:32:40.061Z,337.50
2018-05-13T12:33:39.995Z,202.50
2018-05-13T12:34:39.945Z,208.13
2018-05-13T12:35:39.858Z,354.38
2018-05-13T12:36:39.796Z,185.63
2018-05-13T12:37:39.726Z,196.88
2018-05-13T12:38:39.660Z,208.13
2018-05-13T12:39:39.593Z,393.75
2018-05-13T12:40:39.529Z,466.88
2018-05-13T12:41:39.465Z,551.25
2018-05-13T12:42:39.396Z,618.75
2018-05-13T12:43:39.333Z,652.50
2018-05-13T12:44:39.265Z,669.38
2018-05-13T12:45:39.215Z,697.50
2018-05-13T12:46:39.133Z,703.13
2018-05-13T12:47:39.072Z,714.38
2018-05-13T12:48:39.002Z,731.25
2018-05-13T12:49:38.940Z,753.75
2018-05-13T12:50:38.872Z,765.00
2018-05-13T12:51:38.809Z,793.13
2018-05-13T12:52:38.743Z,258.75
2018-05-13T12:53:38.684Z,652.50
2018-05-13T12:54:38.621Z,950.63
2018-05-13T12:55:38.575Z,984.38
2018-05-13T12:56:38.487Z,1006.88
2018-05-13T12:57:38.423Z,1018.13
2018-05-13T12:58:38.361Z,1018.13
2018-05-13T12:59:38.295Z,1023.75
2018-05-13T13:00:38.231Z,1006.88
2018-05-13T13:01:38.170Z,961.88
2018-05-13T13:02:38.106Z,939.38
2018-05-13T13:03:38.043Z,905.63
2018-05-13T13:04:37.983Z,849.38
2018-05-13T13:05:37.921Z,838.13
2018-05-13T13:06:37.874Z,810.00
2018-05-13T13:07:37.842Z,247.50
2018-05-13T13:08:37.733Z,618.75
2018-05-13T13:09:37.674Z,624.38
2018-05-13T13:10:37.610Z,450.00
2018-05-13T13:11:37.545Z,590.63
2018-05-13T13:12:37.488Z,556.88
2018-05-13T13:13:37.432Z,500.63
2018-05-13T13:14:37.363Z,506.25
2018-05-13T13:15:37.300Z,399.38
2018-05-13T13:16:37.245Z,253.13
2018-05-13T13:17:37.174Z,264.38
2018-05-13T13:18:37.113Z,472.50
2018-05-13T13:19:37.048Z,433.13
2018-05-13T13:20:36.984Z,461.25
2018-05-13T13:21:36.925Z,444.38
2018-05-13T13:22:36.875Z,258.75
2018-05-13T13:23:36.818Z,219.38
2018-05-13T13:24:36.737Z,219.38
2018-05-13T13:25:36.675Z,286.88
2018-05-13T13:26:36.609Z,275.63
2018-05-13T13:27:36.549Z,444.38
2018-05-13T13:28:36.486Z,455.63
2018-05-13T13:29:36.422Z,472.50
2018-05-13T13:30:36.433Z,472.50
2018-05-13T13:31:36.318Z,270.00
2018-05-13T13:32:36.232Z,275.63
2018-05-13T13:33:36.173Z,292.50
2018-05-13T13:34:36.109Z,472.50
2018-05-13T13:35:36.050Z,478.13
2018-05-13T13:36:36.038Z,399.38
2018-05-13T13:37:35.916Z,455.63
2018-05-13T13:38:35.859Z,450.00
2018-05-13T13:39:35.798Z,241.88
2018-05-13T13:40:35.724Z,236.25
2018-05-13T13:41:35.664Z,219.38
2018-05-13T13:42:35.598Z,219.38
2018-05-13T13:43:35.534Z,219.38
2018-05-13T13:44:35.472Z,230.63
2018-05-13T13:45:35.407Z,410.63
2018-05-13T13:46:35.344Z,388.13
2018-05-13T13:47:35.280Z,208.13
2018-05-13T13:48:35.215Z,196.88
2018-05-13T13:49:35.154Z,196.88
2018-05-13T13:50:35.086Z,196.88
2018-05-13T13:51:35.048Z,202.50
2018-05-13T13:52:34.974Z,196.88
2018-05-13T13:53:34.953Z,191.25
2018-05-13T13:54:34.831Z,219.38
2018-05-13T13:55:34.782Z,337.50
2018-05-13T13:56:34.699Z,180.00
2018-05-13T13:57:34.635Z,168.75
2018-05-13T13:58:34.569Z,163.13
2018-05-13T13:59:34.583Z,163.13
2018-05-13T14:00:34.442Z,168.75
2018-05-13T14:01:34.387Z,180.00
2018-05-13T14:02:34.311Z,185.63
2018-05-13T14:03:34.246Z,196.88
2018-05-13T14:04:34.190Z,202.50
2018-05-13T14:05:34.117Z,343.13
2018-05-13T14:06:34.051Z,208.13
2018-05-13T14:07:33.985Z,185.63
2018-05-13T14:08:33.922Z,157.50
2018-05-13T14:09:33.854Z,146.25
2018-05-13T14:10:33.788Z,140.63
2018-05-13T14:11:33.734Z,135.00
2018-05-13T14:12:33.657Z,129.38
2018-05-13T14:13:33.589Z,118.13
2018-05-13T14:14:33.524Z,106.88
2018-05-13T14:15:33.457Z,101.25
2018-05-13T14:16:33.394Z,95.63
2018-05-13T14:17:33.324Z,90.00
2018-05-13T14:18:33.257Z,90.00
2018-05-13T14:19:33.193Z,90.00
2018-05-13T14:20:33.161Z,90.00
2018-05-13T14:21:33.069Z,90.00
2018-05-13T14:22:32.992Z,90.00
2018-05-13T14:23:32.926Z,90.00
2018-05-13T14:24:32.878Z,95.63
2018-05-13T14:25:32.804Z,95.63
2018-05-13T14:26:32.723Z,95.63
2018-05-13T14:27:32.662Z,95.63
2018-05-13T14:28:32.591Z,95.63
2018-05-13T14:29:32.523Z,101.25
2018-05-13T14:30:32.460Z,101.25
2018-05-13T14:31:32.388Z,101.25
2018-05-13T14:32:32.337Z,101.25
2018-05-13T14:33:32.255Z,106.88
2018-05-13T14:34:32.192Z,112.50
2018-05-13T14:35:32.118Z,112.50
2018-05-13T14:36:32.063Z,118.13
2018-05-13T14:37:31.986Z,123.75
2018-05-13T14:38:31.915Z,151.88
2018-05-13T14:39:31.848Z,275.63
2018-05-13T14:40:31.792Z,225.00
2018-05-13T14:41:31.711Z,202.50
2018-05-13T14:42:31.647Z,180.00
2018-05-13T14:43:31.590Z,151.88
2018-05-13T14:44:31.509Z,146.25
2018-05-13T14:45:31.530Z,140.63
2018-05-13T14:46:31.406Z,140.63
2018-05-13T14:47:31.321Z,140.63
2018-05-13T14:48:31.238Z,140.63
2018-05-13T14:49:31.171Z,146.25
2018-05-13T14:50:31.102Z,151.88
2018-05-13T14:51:31.043Z,151.88
2018-05-13T14:52:30.966Z,157.50
2018-05-13T14:53:30.901Z,157.50
2018-05-13T14:54:30.837Z,174.38
2018-05-13T14:55:30.774Z,303.75
2018-05-13T14:56:30.699Z,393.75
2018-05-13T14:57:30.626Z,174.38
2018-05-13T14:58:30.579Z,168.75
2018-05-13T14:59:30.494Z,168.75
2018-05-13T15:00:30.423Z,168.75
2018-05-13T15:01:30.366Z,174.38
2018-05-13T15:02:30.295Z,168.75
2018-05-13T15:03:30.219Z,168.75
2018-05-13T15:04:30.169Z,168.75
2018-05-13T15:05:30.266Z,151.88
2018-05-13T15:06:30.063Z,146.25
2018-05-13T15:07:29.947Z,140.63
2018-05-13T15:08:29.881Z,123.75
2018-05-13T15:09:29.811Z,118.13
2018-05-13T15:10:29.776Z,106.88
2018-05-13T15:11:29.684Z,84.38
2018-05-13T15:12:29.610Z,84.38
2018-05-13T15:13:29.554Z,84.38
2018-05-13T15:14:29.471Z,78.75
2018-05-13T15:15:29.426Z,73.13
2018-05-13T15:16:29.340Z,67.50
2018-05-13T15:17:29.265Z,67.50
2018-05-13T15:18:29.196Z,61.88
2018-05-13T15:19:29.135Z,67.50
2018-05-13T15:20:29.060Z,67.50
2018-05-13T15:21:28.991Z,73.13
2018-05-13T15:22:29.002Z,73.13
2018-05-13T15:23:28.866Z,73.13
2018-05-13T15:24:28.805Z,73.13
2018-05-13T15:25:28.720Z,73.13
2018-05-13T15:26:28.656Z,67.50
2018-05-13T15:27:28.581Z,67.50
2018-05-13T15:28:28.518Z,67.50
2018-05-13T15:29:28.460Z,67.50
2018-05-13T15:30:28.376Z,67.50
2018-05-13T15:31:28.309Z,67.50
2018-05-13T15:32:28.239Z,67.50
2018-05-13T15:33:28.188Z,73.13
2018-05-13T15:34:28.102Z,73.13
2018-05-13T15:35:28.053Z,67.50
2018-05-13T15:36:27.973Z,67.50
2018-05-13T15:37:27.916Z,61.88
2018-05-13T15:38:27.827Z,56.25
2018-05-13T15:39:27.848Z,56.25
2018-05-13T15:40:27.703Z,56.25
2018-05-13T15:41:27.618Z,56.25
2018-05-13T15:42:27.568Z,56.25
2018-05-13T15:43:27.529Z,56.25
2018-05-13T15:44:27.488Z,50.63
2018-05-13T15:45:27.375Z,50.63
2018-05-13T15:46:27.294Z,50.63
2018-05-13T15:47:27.205Z,56.25
2018-05-13T15:48:27.137Z,56.25
2018-05-13T15:49:27.067Z,61.88
2018-05-13T15:50:26.997Z,61.88
2018-05-13T15:51:26.928Z,67.50
2018-05-13T15:52:26.876Z,67.50
2018-05-13T15:53:26.789Z,73.13
2018-05-13T15:54:26.719Z,73.13
2018-05-13T15:55:26.653Z,78.75
2018-05-13T15:56:26.591Z,78.75
2018-05-13T15:57:26.521Z,84.38
2018-05-13T15:58:26.442Z,84.38
2018-05-13T15:59:26.374Z,84.38
2018-05-13T16:00:26.311Z,84.38
2018-05-13T16:01:26.235Z,84.38
2018-05-13T16:02:26.169Z,84.38
2018-05-13T16:03:26.104Z,84.38
2018-05-13T16:04:26.033Z,90.00
2018-05-13T16:05:25.965Z,95.63
2018-05-13T16:06:25.901Z,101.25
2018-05-13T16:07:25.827Z,118.13
2018-05-13T16:08:25.752Z,129.38
2018-05-13T16:09:25.696Z,146.25
2018-05-13T16:10:25.611Z,180.00
2018-05-13T16:11:25.544Z,292.50
2018-05-13T16:12:25.476Z,506.25
2018-05-13T16:13:25.405Z,793.13
2018-05-13T16:14:25.336Z,928.13
2018-05-13T16:15:25.268Z,922.50
2018-05-13T16:16:25.207Z,894.38
2018-05-13T16:17:25.128Z,675.00
2018-05-13T16:18:25.059Z,855.00
2018-05-13T16:19:24.990Z,883.13
2018-05-13T16:20:24.924Z,916.88
2018-05-13T16:21:24.855Z,922.50
2018-05-13T16:22:24.799Z,956.25
2018-05-13T16:23:24.721Z,1018.13
2018-05-13T16:24:24.658Z,1248.75
2018-05-13T16:25:24.590Z,1563.75
2018-05-13T16:26:24.523Z,1800.00
2018-05-13T16:27:24.456Z,1850.63
2018-05-13T16:28:24.390Z,1828.13
2018-05-13T16:29:24.336Z,1816.88
2018-05-13T16:30:24.386Z,1687.50
2018-05-13T16:31:24.196Z,1507.50
2018-05-13T16:32:24.130Z,1501.88
2018-05-13T16:33:24.072Z,1580.63
2018-05-13T16:34:24.000Z,1704.38
2018-05-13T16:35:24.017Z,1800.00
2018-05-13T16:36:23.874Z,1766.25
2018-05-13T16:37:23.817Z,1569.38
2018-05-13T16:38:23.799Z,1445.63
2018-05-13T16:39:23.683Z,1485.00
2018-05-13T16:40:23.621Z,1524.38
2018-05-13T16:41:23.557Z,1496.25
2018-05-13T16:42:23.495Z,1518.75
2018-05-13T16:43:23.444Z,1507.50
2018-05-13T16:44:23.369Z,1518.75
2018-05-13T16:45:23.306Z,1440.00
2018-05-13T16:46:23.285Z,1406.25
2018-05-13T16:47:23.186Z,1451.25
2018-05-13T16:48:23.125Z,1440.00
2018-05-13T16:49:23.068Z,1479.38
2018-05-13T16:50:22.998Z,1558.13
2018-05-13T16:51:22.936Z,1614.38
2018-05-13T16:52:22.877Z,1575.00
2018-05-13T16:53:22.813Z,1513.13
2018-05-13T16:54:22.751Z,1496.25
2018-05-13T16:55:22.699Z,1501.88
2018-05-13T16:56:22.629Z,1406.25
2018-05-13T16:57:22.564Z,1327.50
2018-05-13T16:58:22.503Z,1383.75
2018-05-13T16:59:22.519Z,1434.38
2018-05-13T17:00:22.381Z,1406.25
2018-05-13T17:01:22.320Z,1327.50
2018-05-13T17:02:22.283Z,1299.38
2018-05-13T17:03:22.198Z,1299.38
2018-05-13T17:04:22.143Z,1288.13
2018-05-13T17:05:22.079Z,1243.13
2018-05-13T17:06:22.014Z,1158.75
2018-05-13T17:07:21.952Z,826.88
2018-05-13T17:08:21.896Z,601.88
2018-05-13T17:09:21.874Z,472.50
2018-05-13T17:10:21.766Z,849.38
2018-05-13T17:11:21.707Z,793.13
2018-05-13T17:12:21.645Z,646.88
2018-05-13T17:13:21.590Z,292.50
2018-05-13T17:14:21.520Z,174.38
2018-05-13T17:15:21.460Z,151.88
2018-05-13T17:16:21.405Z,151.88
2018-05-13T17:17:21.346Z,151.88
2018-05-13T17:18:21.277Z,129.38
2018-05-13T17:19:21.209Z,123.75
2018-05-13T17:20:21.144Z,123.75
2018-05-13T17:21:21.082Z,123.75
2018-05-13T17:22:21.035Z,123.75
2018-05-13T17:23:20.955Z,123.75
2018-05-13T17:24:20.893Z,129.38
2018-05-13T17:25:20.825Z,123.75
2018-05-13T17:26:20.763Z,112.50
2018-05-13T17:27:20.700Z,112.50
2018-05-13T17:28:20.706Z,118.13
2018-05-13T17:29:20.570Z,112.50
2018-05-13T17:30:20.504Z,106.88
2018-05-13T17:31:20.439Z,101.25
2018-05-13T17:32:20.378Z,95.63
2018-05-13T17:33:20.308Z,90.00
2018-05-13T17:34:20.248Z,90.00
2018-05-13T17:35:20.178Z,84.38
2018-05-13T17:36:20.135Z,78.75
2018-05-13T17:37:20.075Z,78.75
2018-05-13T17:38:19.982Z,78.75
2018-05-13T17:39:19.961Z,73.13
2018-05-13T17:40:19.852Z,73.13
2018-05-13T17:41:19.850Z,73.13
2018-05-13T17:42:19.719Z,67.50
2018-05-13T17:43:19.651Z,67.50
2018-05-13T17:44:19.581Z,67.50
2018-05-13T17:45:19.515Z,67.50
2018-05-13T17:46:19.449Z,67.50
2018-05-13T17:47:19.379Z,67.50
2018-05-13T17:48:19.325Z,67.50
2018-05-13T17:49:19.250Z,61.88
2018-05-13T17:50:19.181Z,61.88
2018-05-13T17:51:19.114Z,61.88
2018-05-13T17:52:19.048Z,61.88
2018-05-13T17:53:18.980Z,56.25
2018-05-13T17:54:18.921Z,56.25
2018-05-13T17:55:18.844Z,50.63
2018-05-13T17:56:18.783Z,50.63
2018-05-13T17:57:18.738Z,50.63
2018-05-13T17:58:18.642Z,50.63
2018-05-13T17:59:18.575Z,45.00
2018-05-13T18:00:18.566Z,39.38
2018-05-13T18:01:18.442Z,39.38
2018-05-13T18:02:18.451Z,33.75
2018-05-13T18:03:18.489Z,33.75
2018-05-13T18:04:18.235Z,33.75
2018-05-13T18:05:18.168Z,28.13
2018-05-13T18:06:18.105Z,28.13
2018-05-13T18:07:18.031Z,28.13
2018-05-13T18:08:17.961Z,28.13
2018-05-13T18:09:17.895Z,22.50
2018-05-13T18:10:17.828Z,22.50
2018-05-13T18:11:17.762Z,22.50
2018-05-13T18:12:17.804Z,22.50
2018-05-13T18:13:17.621Z,16.88
2018-05-13T18:14:17.558Z,16.88
2018-05-13T18:15:17.488Z,16.88
2018-05-13T18:16:17.417Z,16.88
2018-05-13T18:17:17.346Z,16.88
2018-05-13T18:18:17.278Z,11.25
2018-05-13T18:19:17.216Z,11.25
2018-05-13T18:20:17.141Z,11.25
2018-05-13T18:21:17.074Z,11.25
2018-05-13T18:22:17.003Z,11.25
2018-05-13T18:23:16.934Z,5.63
2018-05-13T18:24:16.867Z,5.63
2018-05-13T18:25:16.796Z,5.63
2018-05-13T18:26:16.729Z,5.63
2018-05-13T18:27:16.658Z,5.63
2018-05-13T18:28:16.587Z,5.63
2018-05-13T18:29:16.518Z,0.00
2018-05-13T18:30:16.448Z,0.00
2018-05-13T18:31:16.389Z,0.00
2018-05-13T18:32:16.324Z,0.00
2018-05-13T18:33:16.242Z,0.00
2018-05-13T18:34:16.171Z,0.00
2018-05-13T18:35:16.102Z,0.00
2018-05-13T18:36:16.082Z,0.00
2018-05-13T18:37:15.964Z,0.00
2018-05-13T18:38:15.896Z,0.00
2018-05-13T18:39:15.953Z,0.00
2018-05-13T18:40:15.754Z,0.00
2018-05-13T18:41:15.686Z,0.00
2018-05-13T18:42:15.660Z,0.00
2018-05-13T18:43:15.546Z,0.00
2018-05-13T18:44:15.477Z,0.00
2018-05-13T18:45:15.407Z,0.00
2018-05-13T18:46:15.344Z,0.00
2018-05-13T18:47:15.267Z,0.00
2018-05-13T18:48:15.204Z,0.00
2018-05-13T18:49:15.130Z,0.00
2018-05-13T18:50:15.072Z,0.00
2018-05-13T18:51:14.992Z,0.00
2018-05-13T18:52:14.917Z,0.00
2018-05-13T18:53:14.853Z,0.00
2018-05-13T18:54:14.782Z,0.00
2018-05-13T18:55:14.707Z,0.00
2018-05-13T18:56:14.649Z,0.00
2018-05-13T18:57:14.568Z,0.00
2018-05-13T18:58:14.503Z,0.00
2018-05-13T18:59:14.451Z,0.00
2018-05-13T19:00:14.359Z,0.00
2018-05-13T19:01:14.288Z,0.00
2018-05-13T19:02:14.225Z,0.00
2018-05-13T19:03:14.149Z,0.00
2018-05-13T19:04:14.077Z,0.00
2018-05-13T19:05:14.007Z,0.00
2018-05-13T19:06:13.937Z,0.00
2018-05-13T19:07:13.869Z,0.00
2018-05-13T19:08:13.796Z,0.00
2018-05-13T19:09:13.731Z,0.00
2018-05-13T19:10:13.656Z,0.00
2018-05-13T19:11:13.586Z,0.00
2018-05-13T19:12:13.571Z,0.00
2018-05-13T19:13:13.444Z,0.00
2018-05-13T19:14:13.381Z,0.00
2018-05-13T19:15:13.307Z,0.00
2018-05-13T19:16:13.235Z,0.00
2018-05-13T19:17:13.165Z,0.00
2018-05-13T19:18:13.092Z,0.00
2018-05-13T19:19:13.026Z,0.00
2018-05-13T19:20:12.970Z,0.00
2018-05-13T19:21:12.883Z,0.00
2018-05-13T19:22:12.810Z,0.00
2018-05-13T19:23:12.742Z,0.00
2018-05-13T19:24:12.671Z,0.00
2018-05-13T19:25:12.602Z,0.00
2018-05-13T19:26:12.527Z,0.00
2018-05-13T19:27:12.457Z,0.00
2018-05-13T19:28:12.388Z,0.00
2018-05-13T19:29:12.319Z,0.00
2018-05-13T19:30:12.249Z,0.00
2018-05-13T19:31:12.182Z,0.00
2018-05-13T19:32:12.110Z,0.00
2018-05-13T19:33:12.034Z,0.00
2018-05-13T19:34:11.962Z,0.00
2018-05-13T19:35:11.894Z,0.00
2018-05-13T19:36:11.835Z,0.00
2018-05-13T19:37:11.762Z,0.00
2018-05-13T19:38:11.681Z,0.00
2018-05-13T19:39:11.611Z,0.00
2018-05-13T19:40:11.540Z,0.00
2018-05-13T19:41:11.468Z,0.00
2018-05-13T19:42:11.397Z,0.00
2018-05-13T19:43:11.334Z,0.00
2018-05-13T19:44:11.255Z,0.00
2018-05-13T19:45:11.185Z,0.00
2018-05-13T19:46:11.114Z,0.00
2018-05-13T19:47:11.049Z,0.00
2018-05-13T19:48:10.973Z,0.00
2018-05-13T19:49:10.913Z,0.00
2018-05-13T19:50:10.835Z,0.00
2018-05-13T19:51:10.760Z,0.00
2018-05-13T19:52:10.690Z,0.00
2018-05-13T19:53:10.619Z,0.00
2018-05-13T19:54:10.620Z,0.00
2018-05-13T19:55:10.476Z,0.00
2018-05-13T19:56:10.412Z,0.00
2018-05-13T19:57:10.336Z,0.00
2018-05-13T19:58:10.266Z,0.00
2018-05-13T19:59:10.192Z,0.00
2018-05-13T20:00:10.122Z,0.00
2018-05-13T20:01:10.051Z,0.00
2018-05-13T20:02:09.990Z,0.00
2018-05-13T20:03:10.006Z,0.00
2018-05-13T20:04:09.839Z,0.00
2018-05-13T20:05:09.766Z,0.00
2018-05-13T20:06:09.716Z,0.00
2018-05-13T20:07:09.624Z,0.00
2018-05-13T20:08:09.561Z,0.00
2018-05-13T20:09:09.505Z,0.00
2018-05-13T20:10:09.410Z,0.00
2018-05-13T20:11:09.342Z,0.00
2018-05-13T20:12:09.270Z,0.00
2018-05-13T20:13:09.202Z,0.00
2018-05-13T20:14:09.137Z,0.00
2018-05-13T20:15:09.065Z,0.00
2018-05-13T20:16:08.985Z,0.00
2018-05-13T20:17:08.916Z,0.00
2018-05-13T20:18:08.845Z,0.00
2018-05-13T20:19:08.773Z,0.00
2018-05-13T20:20:08.701Z,0.00
2018-05-13T20:21:08.632Z,0.00
2018-05-13T20:22:08.582Z,0.00
2018-05-13T20:23:08.495Z,0.00
2018-05-13T20:24:08.418Z,0.00
2018-05-13T20:25:08.347Z,0.00
2018-05-13T20:26:08.274Z,0.00
2018-05-13T20:27:08.204Z,0.00
2018-05-13T20:28:08.141Z,0.00
2018-05-13T20:29:08.065Z,0.00
2018-05-13T20:30:07.993Z,0.00
2018-05-13T20:31:07.920Z,0.00
2018-05-13T20:32:07.850Z,0.00
2018-05-13T20:33:07.777Z,0.00
2018-05-13T20:34:07.713Z,0.00
2018-05-13T20:35:07.636Z,0.00
2018-05-13T20:36:07.564Z,0.00
2018-05-13T20:37:07.493Z,0.00
2018-05-13T20:38:07.420Z,0.00
2018-05-13T20:39:07.355Z,0.00
2018-05-13T20:40:07.291Z,0.00
2018-05-13T20:41:07.207Z,0.00
2018-05-13T20:42:07.141Z,0.00
2018-05-13T20:43:07.084Z,0.00
2018-05-13T20:44:06.993Z,0.00
2018-05-13T20:45:06.922Z,0.00
2018-05-13T20:46:06.851Z,0.00
2018-05-13T20:47:06.790Z,0.00
2018-05-13T20:48:06.707Z,0.00
2018-05-13T20:49:06.640Z,0.00
2018-05-13T20:50:06.564Z,0.00
2018-05-13T20:51:06.493Z,0.00
2018-05-13T20:52:06.427Z,0.00
2018-05-13T20:53:06.357Z,0.00
2018-05-13T20:54:06.288Z,0.00
2018-05-13T20:55:06.208Z,0.00
2018-05-13T20:56:06.138Z,0.00
2018-05-13T20:57:06.066Z,0.00
2018-05-13T20:58:05.997Z,0.00
2018-05-13T20:59:05.927Z,0.00
2018-05-13T21:00:05.855Z,0.00
2018-05-13T21:01:05.780Z,0.00
2018-05-13T21:02:05.708Z,0.00
2018-05-13T21:03:05.641Z,0.00
2018-05-13T21:04:05.576Z,0.00
2018-05-13T21:05:05.496Z,0.00
2018-05-13T21:06:05.427Z,0.00
2018-05-13T21:07:05.357Z,0.00
2018-05-13T21:08:05.286Z,0.00
2018-05-13T21:09:05.213Z,0.00
2018-05-13T21:10:05.139Z,0.00
2018-05-13T21:11:05.070Z,0.00
2018-05-13T21:12:04.996Z,0.00
2018-05-13T21:13:04.933Z,0.00
2018-05-13T21:14:04.852Z,0.00
2018-05-13T21:15:04.784Z,0.00
2018-05-13T21:16:04.795Z,0.00
2018-05-13T21:17:04.641Z,0.00
2018-05-13T21:18:04.568Z,0.00
2018-05-13T21:19:04.499Z,0.00
2018-05-13T21:20:04.429Z,0.00
2018-05-13T21:21:04.356Z,0.00
2018-05-13T21:22:04.285Z,0.00
2018-05-13T21:23:04.216Z,0.00
2018-05-13T21:24:04.144Z,0.00
2018-05-13T21:25:04.072Z,0.00
2018-05-13T21:26:04.009Z,0.00
2018-05-13T21:27:03.927Z,0.00
2018-05-13T21:28:03.854Z,0.00
2018-05-13T21:29:03.784Z,0.00
2018-05-13T21:30:03.789Z,0.00
2018-05-13T21:31:03.640Z,0.00
2018-05-13T21:32:03.571Z,0.00
2018-05-13T21:33:03.511Z,0.00
2018-05-13T21:34:03.428Z,0.00
2018-05-13T21:35:03.361Z,0.00
2018-05-13T21:36:03.284Z,0.00
2018-05-13T21:37:03.224Z,0.00
2018-05-13T21:38:03.142Z,0.00
2018-05-13T21:39:03.081Z,0.00
2018-05-13T21:40:03.000Z,0.00
2018-05-13T21:41:02.929Z,0.00
2018-05-13T21:42:02.855Z,0.00
2018-05-13T21:43:02.791Z,0.00
2018-05-13T21:44:02.713Z,0.00
2018-05-13T21:45:02.652Z,0.00